sensor_id;sensor_type;location;lat;lon;timestamp;P1;durP1;ratioP1;P2;durP2;ratioP2
18338;SDS011;9295;44.484;11.240;2023-03-23T00:02:26;9.13;;;6.60;;
18338;SDS011;9295;44.484;11.240;2023-03-23T00:04:54;15.93;;;7.30;;
18338;SDS011;9295;44.484;11.240;2023-03-23T00:07:22;13.13;;;7.20;;
18338;SDS011;9295;44.484;11.240;2023-03-23T00:09:53;9.00;;;7.13;;
18338;SDS011;9295;44.484;11.240;2023-03-23T00:12:21;12.93;;;7.90;;
18338;SDS011;9295;44.484;11.240;2023-03-23T00:14:54;9.97;;;7.03;;
18338;SDS011;9295;44.484;11.240;2023-03-23T00:17:22;11.93;;;8.63;;
18338;SDS011;9295;44.484;11.240;2023-03-23T00:19:51;13.23;;;7.37;;
18338;SDS011;9295;44.484;11.240;2023-03-23T00:22:19;13.10;;;8.37;;
18338;SDS011;9295;44.484;11.240;2023-03-23T00:24:46;15.07;;;8.03;;
18338;SDS011;9295;44.484;11.240;2023-03-23T00:27:16;9.70;;;7.40;;
18338;SDS011;9295;44.484;11.240;2023-03-23T00:29:43;11.50;;;7.17;;
18338;SDS011;9295;44.484;11.240;2023-03-23T00:32:12;16.03;;;7.70;;
18338;SDS011;9295;44.484;11.240;2023-03-23T00:34:42;12.60;;;6.53;;
18338;SDS011;9295;44.484;11.240;2023-03-23T00:37:12;20.17;;;8.00;;
18338;SDS011;9295;44.484;11.240;2023-03-23T00:39:42;10.60;;;6.80;;
18338;SDS011;9295;44.484;11.240;2023-03-23T00:42:12;9.53;;;7.37;;
18338;SDS011;9295;44.484;11.240;2023-03-23T00:44:40;9.40;;;6.97;;
18338;SDS011;9295;44.484;11.240;2023-03-23T00:47:09;10.40;;;7.60;;
18338;SDS011;9295;44.484;11.240;2023-03-23T00:49:37;10.80;;;8.13;;
18338;SDS011;9295;44.484;11.240;2023-03-23T00:52:06;15.27;;;7.70;;
18338;SDS011;9295;44.484;11.240;2023-03-23T00:54:35;12.97;;;8.00;;
18338;SDS011;9295;44.484;11.240;2023-03-23T00:57:03;11.07;;;8.00;;
18338;SDS011;9295;44.484;11.240;2023-03-23T00:59:32;11.17;;;7.03;;
18338;SDS011;9295;44.484;11.240;2023-03-23T01:02:00;9.10;;;7.20;;
18338;SDS011;9295;44.484;11.240;2023-03-23T01:04:27;14.20;;;7.40;;
18338;SDS011;9295;44.484;11.240;2023-03-23T01:06:57;9.43;;;7.40;;
18338;SDS011;9295;44.484;11.240;2023-03-23T01:09:26;12.50;;;8.50;;
18338;SDS011;9295;44.484;11.240;2023-03-23T01:11:55;10.60;;;7.20;;
18338;SDS011;9295;44.484;11.240;2023-03-23T01:14:22;10.90;;;7.50;;
18338;SDS011;9295;44.484;11.240;2023-03-23T01:16:50;10.10;;;7.93;;
18338;SDS011;9295;44.484;11.240;2023-03-23T01:19:18;12.87;;;8.13;;
18338;SDS011;9295;44.484;11.240;2023-03-23T01:21:46;11.77;;;6.87;;
18338;SDS011;9295;44.484;11.240;2023-03-23T01:24:13;15.23;;;8.43;;
18338;SDS011;9295;44.484;11.240;2023-03-23T01:26:41;10.73;;;7.50;;
18338;SDS011;9295;44.484;11.240;2023-03-23T01:29:09;12.93;;;7.10;;
18338;SDS011;9295;44.484;11.240;2023-03-23T01:31:37;10.70;;;7.33;;
18338;SDS011;9295;44.484;11.240;2023-03-23T01:34:06;11.13;;;7.53;;
18338;SDS011;9295;44.484;11.240;2023-03-23T01:36:33;9.43;;;7.33;;
18338;SDS011;9295;44.484;11.240;2023-03-23T01:39:03;10.07;;;6.40;;
18338;SDS011;9295;44.484;11.240;2023-03-23T01:41:32;11.03;;;7.17;;
18338;SDS011;9295;44.484;11.240;2023-03-23T01:47:20;11.50;;;7.20;;
18338;SDS011;9295;44.484;11.240;2023-03-23T01:49:53;9.83;;;6.70;;
18338;SDS011;9295;44.484;11.240;2023-03-23T01:52:22;10.30;;;7.03;;
18338;SDS011;9295;44.484;11.240;2023-03-23T01:54:57;10.83;;;6.57;;
18338;SDS011;9295;44.484;11.240;2023-03-23T01:57:25;14.80;;;8.00;;
18338;SDS011;9295;44.484;11.240;2023-03-23T01:59:57;12.17;;;8.20;;
18338;SDS011;9295;44.484;11.240;2023-03-23T02:02:40;11.20;;;7.07;;
18338;SDS011;9295;44.484;11.240;2023-03-23T02:05:11;10.30;;;7.83;;
18338;SDS011;9295;44.484;11.240;2023-03-23T02:07:42;10.10;;;7.47;;
18338;SDS011;9295;44.484;11.240;2023-03-23T02:10:11;14.87;;;7.70;;
18338;SDS011;9295;44.484;11.240;2023-03-23T02:12:38;12.03;;;7.10;;
18338;SDS011;9295;44.484;11.240;2023-03-23T02:15:08;11.40;;;7.47;;
18338;SDS011;9295;44.484;11.240;2023-03-23T02:17:42;13.83;;;7.80;;
18338;SDS011;9295;44.484;11.240;2023-03-23T02:20:27;10.23;;;7.20;;
18338;SDS011;9295;44.484;11.240;2023-03-23T02:23:31;10.30;;;7.50;;
18338;SDS011;9295;44.484;11.240;2023-03-23T02:26:31;11.00;;;6.70;;
18338;SDS011;9295;44.484;11.240;2023-03-23T02:32:16;9.63;;;7.30;;
18338;SDS011;9295;44.484;11.240;2023-03-23T02:35:06;9.30;;;6.47;;
18338;SDS011;9295;44.484;11.240;2023-03-23T02:37:38;11.53;;;6.90;;
18338;SDS011;9295;44.484;11.240;2023-03-23T02:40:12;14.90;;;7.70;;
18338;SDS011;9295;44.484;11.240;2023-03-23T02:42:43;10.83;;;8.03;;
18338;SDS011;9295;44.484;11.240;2023-03-23T02:45:14;10.33;;;7.07;;
18338;SDS011;9295;44.484;11.240;2023-03-23T02:47:45;12.33;;;7.80;;
18338;SDS011;9295;44.484;11.240;2023-03-23T02:50:16;11.17;;;8.40;;
18338;SDS011;9295;44.484;11.240;2023-03-23T02:52:46;13.63;;;7.20;;
18338;SDS011;9295;44.484;11.240;2023-03-23T02:55:16;14.17;;;8.20;;
18338;SDS011;9295;44.484;11.240;2023-03-23T02:57:46;16.10;;;8.20;;
18338;SDS011;9295;44.484;11.240;2023-03-23T03:00:15;11.37;;;7.80;;
18338;SDS011;9295;44.484;11.240;2023-03-23T03:02:44;9.77;;;7.47;;
18338;SDS011;9295;44.484;11.240;2023-03-23T03:05:21;13.80;;;8.70;;
18338;SDS011;9295;44.484;11.240;2023-03-23T03:07:59;13.87;;;7.93;;
18338;SDS011;9295;44.484;11.240;2023-03-23T03:10:42;12.67;;;8.27;;
18338;SDS011;9295;44.484;11.240;2023-03-23T03:13:18;12.27;;;8.00;;
18338;SDS011;9295;44.484;11.240;2023-03-23T03:16:02;11.47;;;8.43;;
18338;SDS011;9295;44.484;11.240;2023-03-23T03:18:37;11.07;;;8.17;;
18338;SDS011;9295;44.484;11.240;2023-03-23T03:21:12;10.50;;;7.00;;
18338;SDS011;9295;44.484;11.240;2023-03-23T03:23:44;9.93;;;7.70;;
18338;SDS011;9295;44.484;11.240;2023-03-23T03:26:15;12.30;;;7.80;;
18338;SDS011;9295;44.484;11.240;2023-03-23T03:28:54;11.47;;;7.80;;
18338;SDS011;9295;44.484;11.240;2023-03-23T03:31:23;18.00;;;7.50;;
18338;SDS011;9295;44.484;11.240;2023-03-23T03:33:54;11.40;;;8.17;;
18338;SDS011;9295;44.484;11.240;2023-03-23T03:36:26;12.67;;;8.13;;
18338;SDS011;9295;44.484;11.240;2023-03-23T03:39:04;10.10;;;8.00;;
18338;SDS011;9295;44.484;11.240;2023-03-23T03:41:35;11.07;;;7.43;;
18338;SDS011;9295;44.484;11.240;2023-03-23T03:44:04;10.20;;;7.30;;
18338;SDS011;9295;44.484;11.240;2023-03-23T03:46:33;11.27;;;7.57;;
18338;SDS011;9295;44.484;11.240;2023-03-23T03:49:02;12.43;;;7.47;;
18338;SDS011;9295;44.484;11.240;2023-03-23T03:51:34;10.30;;;7.93;;
18338;SDS011;9295;44.484;11.240;2023-03-23T03:54:04;11.60;;;7.60;;
18338;SDS011;9295;44.484;11.240;2023-03-23T03:56:31;13.97;;;7.80;;
18338;SDS011;9295;44.484;11.240;2023-03-23T03:59:30;12.40;;;9.10;;
18338;SDS011;9295;44.484;11.240;2023-03-23T04:02:30;11.40;;;8.17;;
18338;SDS011;9295;44.484;11.240;2023-03-23T04:04:58;10.23;;;7.77;;
18338;SDS011;9295;44.484;11.240;2023-03-23T04:07:32;10.83;;;8.70;;
18338;SDS011;9295;44.484;11.240;2023-03-23T04:09:59;11.07;;;8.03;;
18338;SDS011;9295;44.484;11.240;2023-03-23T04:12:27;15.00;;;8.80;;
18338;SDS011;9295;44.484;11.240;2023-03-23T04:14:54;13.73;;;8.47;;
18338;SDS011;9295;44.484;11.240;2023-03-23T04:17:26;9.70;;;7.60;;
18338;SDS011;9295;44.484;11.240;2023-03-23T04:19:54;11.07;;;8.40;;
18338;SDS011;9295;44.484;11.240;2023-03-23T04:22:24;14.67;;;8.00;;
18338;SDS011;9295;44.484;11.240;2023-03-23T04:24:59;12.80;;;8.30;;
18338;SDS011;9295;44.484;11.240;2023-03-23T04:27:33;17.23;;;8.27;;
18338;SDS011;9295;44.484;11.240;2023-03-23T04:30:04;16.03;;;8.50;;
18338;SDS011;9295;44.484;11.240;2023-03-23T04:32:33;12.13;;;8.77;;
18338;SDS011;9295;44.484;11.240;2023-03-23T04:35:01;10.87;;;8.07;;
18338;SDS011;9295;44.484;11.240;2023-03-23T04:37:37;11.10;;;7.30;;
18338;SDS011;9295;44.484;11.240;2023-03-23T04:40:07;10.70;;;7.93;;
18338;SDS011;9295;44.484;11.240;2023-03-23T04:42:38;14.20;;;8.10;;
18338;SDS011;9295;44.484;11.240;2023-03-23T04:45:31;10.67;;;8.20;;
18338;SDS011;9295;44.484;11.240;2023-03-23T04:48:00;10.23;;;8.23;;
18338;SDS011;9295;44.484;11.240;2023-03-23T04:50:39;11.00;;;8.00;;
18338;SDS011;9295;44.484;11.240;2023-03-23T04:53:16;10.87;;;8.37;;
18338;SDS011;9295;44.484;11.240;2023-03-23T04:55:46;11.20;;;8.20;;
18338;SDS011;9295;44.484;11.240;2023-03-23T04:58:15;13.10;;;8.17;;
18338;SDS011;9295;44.484;11.240;2023-03-23T05:01:01;11.83;;;8.67;;
18338;SDS011;9295;44.484;11.240;2023-03-23T05:03:31;13.33;;;8.60;;
18338;SDS011;9295;44.484;11.240;2023-03-23T05:06:00;12.67;;;8.60;;
18338;SDS011;9295;44.484;11.240;2023-03-23T05:08:29;12.77;;;8.53;;
18338;SDS011;9295;44.484;11.240;2023-03-23T05:11:00;11.77;;;7.77;;
18338;SDS011;9295;44.484;11.240;2023-03-23T05:13:32;11.10;;;7.53;;
18338;SDS011;9295;44.484;11.240;2023-03-23T05:16:02;11.83;;;8.10;;
18338;SDS011;9295;44.484;11.240;2023-03-23T05:18:32;9.30;;;7.67;;
18338;SDS011;9295;44.484;11.240;2023-03-23T05:21:03;14.43;;;8.60;;
18338;SDS011;9295;44.484;11.240;2023-03-23T05:23:35;12.40;;;8.47;;
18338;SDS011;9295;44.484;11.240;2023-03-23T05:26:14;12.23;;;8.00;;
18338;SDS011;9295;44.484;11.240;2023-03-23T05:28:41;10.67;;;8.23;;
18338;SDS011;9295;44.484;11.240;2023-03-23T05:31:22;14.10;;;8.50;;
18338;SDS011;9295;44.484;11.240;2023-03-23T05:33:49;11.57;;;8.67;;
18338;SDS011;9295;44.484;11.240;2023-03-23T05:36:27;12.30;;;8.80;;
18338;SDS011;9295;44.484;11.240;2023-03-23T05:39:07;11.30;;;7.97;;
18338;SDS011;9295;44.484;11.240;2023-03-23T05:41:55;17.83;;;8.20;;
18338;SDS011;9295;44.484;11.240;2023-03-23T05:44:26;11.40;;;8.40;;
18338;SDS011;9295;44.484;11.240;2023-03-23T05:46:58;13.10;;;8.00;;
18338;SDS011;9295;44.484;11.240;2023-03-23T05:49:25;13.90;;;8.93;;
18338;SDS011;9295;44.484;11.240;2023-03-23T05:51:54;13.13;;;7.67;;
18338;SDS011;9295;44.484;11.240;2023-03-23T05:54:21;10.53;;;7.63;;
18338;SDS011;9295;44.484;11.240;2023-03-23T05:56:49;9.87;;;7.83;;
18338;SDS011;9295;44.484;11.240;2023-03-23T05:59:41;11.83;;;8.23;;
18338;SDS011;9295;44.484;11.240;2023-03-23T06:02:15;9.10;;;7.47;;
18338;SDS011;9295;44.484;11.240;2023-03-23T06:04:43;13.10;;;7.90;;
18338;SDS011;9295;44.484;11.240;2023-03-23T06:07:21;15.50;;;7.87;;
18338;SDS011;9295;44.484;11.240;2023-03-23T06:09:57;11.73;;;7.67;;
18338;SDS011;9295;44.484;11.240;2023-03-23T06:12:24;12.50;;;8.13;;
18338;SDS011;9295;44.484;11.240;2023-03-23T06:15:09;10.87;;;7.90;;
18338;SDS011;9295;44.484;11.240;2023-03-23T06:18:04;15.67;;;7.93;;
18338;SDS011;9295;44.484;11.240;2023-03-23T06:20:49;13.70;;;7.50;;
18338;SDS011;9295;44.484;11.240;2023-03-23T06:23:43;15.20;;;6.53;;
18338;SDS011;9295;44.484;11.240;2023-03-23T06:26:11;8.73;;;6.93;;
18338;SDS011;9295;44.484;11.240;2023-03-23T06:28:43;11.30;;;7.13;;
18338;SDS011;9295;44.484;11.240;2023-03-23T06:31:12;10.10;;;6.50;;
18338;SDS011;9295;44.484;11.240;2023-03-23T06:33:40;11.00;;;6.40;;
18338;SDS011;9295;44.484;11.240;2023-03-23T06:36:31;10.77;;;6.00;;
18338;SDS011;9295;44.484;11.240;2023-03-23T06:39:10;8.23;;;5.73;;
18338;SDS011;9295;44.484;11.240;2023-03-23T06:41:50;9.73;;;6.10;;
18338;SDS011;9295;44.484;11.240;2023-03-23T06:44:17;9.17;;;5.50;;
18338;SDS011;9295;44.484;11.240;2023-03-23T06:46:46;13.10;;;4.57;;
18338;SDS011;9295;44.484;11.240;2023-03-23T06:49:31;7.40;;;5.40;;
18338;SDS011;9295;44.484;11.240;2023-03-23T06:52:08;5.87;;;4.43;;
18338;SDS011;9295;44.484;11.240;2023-03-23T06:54:36;8.70;;;4.63;;
18338;SDS011;9295;44.484;11.240;2023-03-23T06:57:05;8.50;;;4.50;;
18338;SDS011;9295;44.484;11.240;2023-03-23T06:59:33;9.77;;;4.70;;
18338;SDS011;9295;44.484;11.240;2023-03-23T07:02:03;9.33;;;4.33;;
18338;SDS011;9295;44.484;11.240;2023-03-23T07:04:32;6.23;;;4.53;;
18338;SDS011;9295;44.484;11.240;2023-03-23T07:07:06;14.33;;;4.60;;
18338;SDS011;9295;44.484;11.240;2023-03-23T07:09:43;8.23;;;4.20;;
18338;SDS011;9295;44.484;11.240;2023-03-23T07:12:14;7.10;;;3.90;;
18338;SDS011;9295;44.484;11.240;2023-03-23T07:14:45;8.33;;;4.43;;
18338;SDS011;9295;44.484;11.240;2023-03-23T07:17:14;9.87;;;4.80;;
18338;SDS011;9295;44.484;11.240;2023-03-23T07:19:58;11.63;;;5.10;;
18338;SDS011;9295;44.484;11.240;2023-03-23T07:22:25;14.20;;;5.27;;
18338;SDS011;9295;44.484;11.240;2023-03-23T07:25:02;6.77;;;4.33;;
18338;SDS011;9295;44.484;11.240;2023-03-23T07:27:41;9.30;;;4.40;;
18338;SDS011;9295;44.484;11.240;2023-03-23T07:30:11;7.80;;;4.10;;
18338;SDS011;9295;44.484;11.240;2023-03-23T07:32:41;12.70;;;4.43;;
18338;SDS011;9295;44.484;11.240;2023-03-23T07:35:09;9.73;;;4.37;;
18338;SDS011;9295;44.484;11.240;2023-03-23T07:37:43;8.03;;;4.13;;
18338;SDS011;9295;44.484;11.240;2023-03-23T07:40:15;7.67;;;3.90;;
18338;SDS011;9295;44.484;11.240;2023-03-23T07:42:53;8.73;;;4.63;;
18338;SDS011;9295;44.484;11.240;2023-03-23T07:45:42;9.20;;;4.07;;
18338;SDS011;9295;44.484;11.240;2023-03-23T07:48:14;13.63;;;4.90;;
18338;SDS011;9295;44.484;11.240;2023-03-23T07:50:42;7.40;;;4.03;;
18338;SDS011;9295;44.484;11.240;2023-03-23T07:53:11;8.60;;;4.30;;
18338;SDS011;9295;44.484;11.240;2023-03-23T07:55:42;8.60;;;5.10;;
18338;SDS011;9295;44.484;11.240;2023-03-23T07:58:36;13.63;;;5.33;;
18338;SDS011;9295;44.484;11.240;2023-03-23T08:01:04;10.50;;;4.70;;
18338;SDS011;9295;44.484;11.240;2023-03-23T08:03:35;7.70;;;4.43;;
18338;SDS011;9295;44.484;11.240;2023-03-23T08:06:31;7.90;;;4.30;;
18338;SDS011;9295;44.484;11.240;2023-03-23T08:09:13;7.00;;;4.20;;
18338;SDS011;9295;44.484;11.240;2023-03-23T08:12:07;7.97;;;4.47;;
18338;SDS011;9295;44.484;11.240;2023-03-23T08:14:37;11.37;;;5.40;;
18338;SDS011;9295;44.484;11.240;2023-03-23T08:17:25;12.13;;;5.90;;
18338;SDS011;9295;44.484;11.240;2023-03-23T08:20:16;14.27;;;5.30;;
18338;SDS011;9295;44.484;11.240;2023-03-23T08:22:59;10.47;;;5.83;;
18338;SDS011;9295;44.484;11.240;2023-03-23T08:25:47;13.07;;;5.73;;
18338;SDS011;9295;44.484;11.240;2023-03-23T08:28:25;13.00;;;6.23;;
18338;SDS011;9295;44.484;11.240;2023-03-23T08:30:55;14.97;;;6.97;;
18338;SDS011;9295;44.484;11.240;2023-03-23T08:33:58;16.17;;;6.90;;
18338;SDS011;9295;44.484;11.240;2023-03-23T08:36:56;14.20;;;6.67;;
18338;SDS011;9295;44.484;11.240;2023-03-23T08:39:59;11.23;;;6.37;;
18338;SDS011;9295;44.484;11.240;2023-03-23T08:42:35;15.97;;;8.30;;
18338;SDS011;9295;44.484;11.240;2023-03-23T08:45:23;22.77;;;10.07;;
18338;SDS011;9295;44.484;11.240;2023-03-23T08:48:00;20.73;;;8.60;;
18338;SDS011;9295;44.484;11.240;2023-03-23T08:50:40;24.53;;;9.03;;
18338;SDS011;9295;44.484;11.240;2023-03-23T08:53:11;20.13;;;8.80;;
18338;SDS011;9295;44.484;11.240;2023-03-23T08:56:04;16.40;;;8.43;;
18338;SDS011;9295;44.484;11.240;2023-03-23T08:58:45;21.37;;;8.80;;
18338;SDS011;9295;44.484;11.240;2023-03-23T09:01:30;27.80;;;9.37;;
18338;SDS011;9295;44.484;11.240;2023-03-23T09:04:12;16.40;;;9.00;;
18338;SDS011;9295;44.484;11.240;2023-03-23T09:06:49;17.10;;;9.30;;
18338;SDS011;9295;44.484;11.240;2023-03-23T09:09:18;18.80;;;9.10;;
18338;SDS011;9295;44.484;11.240;2023-03-23T09:11:46;23.00;;;9.23;;
18338;SDS011;9295;44.484;11.240;2023-03-23T09:14:13;21.30;;;9.53;;
18338;SDS011;9295;44.484;11.240;2023-03-23T09:16:41;18.70;;;8.03;;
18338;SDS011;9295;44.484;11.240;2023-03-23T09:19:26;18.63;;;9.43;;
18338;SDS011;9295;44.484;11.240;2023-03-23T09:21:54;19.57;;;9.47;;
18338;SDS011;9295;44.484;11.240;2023-03-23T09:24:23;18.70;;;10.30;;
18338;SDS011;9295;44.484;11.240;2023-03-23T09:26:50;23.10;;;10.07;;
18338;SDS011;9295;44.484;11.240;2023-03-23T09:29:18;22.90;;;10.00;;
18338;SDS011;9295;44.484;11.240;2023-03-23T09:31:46;25.03;;;9.00;;
18338;SDS011;9295;44.484;11.240;2023-03-23T09:34:14;17.60;;;8.43;;
18338;SDS011;9295;44.484;11.240;2023-03-23T09:36:42;20.47;;;9.00;;
18338;SDS011;9295;44.484;11.240;2023-03-23T09:39:10;14.53;;;7.90;;
18338;SDS011;9295;44.484;11.240;2023-03-23T09:41:50;16.03;;;8.40;;
18338;SDS011;9295;44.484;11.240;2023-03-23T09:44:30;17.30;;;8.80;;
18338;SDS011;9295;44.484;11.240;2023-03-23T09:47:04;18.07;;;8.33;;
18338;SDS011;9295;44.484;11.240;2023-03-23T09:49:37;18.70;;;8.33;;
18338;SDS011;9295;44.484;11.240;2023-03-23T09:52:10;15.80;;;8.10;;
18338;SDS011;9295;44.484;11.240;2023-03-23T09:54:41;18.73;;;8.53;;
18338;SDS011;9295;44.484;11.240;2023-03-23T09:57:14;15.93;;;8.03;;
18338;SDS011;9295;44.484;11.240;2023-03-23T09:59:45;18.50;;;8.27;;
18338;SDS011;9295;44.484;11.240;2023-03-23T10:02:18;22.50;;;7.87;;
18338;SDS011;9295;44.484;11.240;2023-03-23T10:04:51;16.00;;;7.60;;
18338;SDS011;9295;44.484;11.240;2023-03-23T10:07:23;17.17;;;7.67;;
18338;SDS011;9295;44.484;11.240;2023-03-23T10:09:53;16.07;;;7.90;;
18338;SDS011;9295;44.484;11.240;2023-03-23T10:12:27;18.93;;;7.50;;
18338;SDS011;9295;44.484;11.240;2023-03-23T10:15:02;19.40;;;8.63;;
18338;SDS011;9295;44.484;11.240;2023-03-23T10:17:39;22.40;;;10.47;;
18338;SDS011;9295;44.484;11.240;2023-03-23T10:20:20;19.80;;;10.20;;
18338;SDS011;9295;44.484;11.240;2023-03-23T10:22:55;20.60;;;9.73;;
18338;SDS011;9295;44.484;11.240;2023-03-23T10:25:29;23.50;;;10.03;;
18338;SDS011;9295;44.484;11.240;2023-03-23T10:28:04;21.70;;;8.80;;
18338;SDS011;9295;44.484;11.240;2023-03-23T10:30:35;19.47;;;9.30;;
18338;SDS011;9295;44.484;11.240;2023-03-23T10:33:04;17.90;;;8.87;;
18338;SDS011;9295;44.484;11.240;2023-03-23T10:35:39;21.70;;;9.50;;
18338;SDS011;9295;44.484;11.240;2023-03-23T10:38:11;20.70;;;9.50;;
18338;SDS011;9295;44.484;11.240;2023-03-23T10:40:46;18.13;;;9.13;;
18338;SDS011;9295;44.484;11.240;2023-03-23T10:43:19;18.80;;;9.67;;
18338;SDS011;9295;44.484;11.240;2023-03-23T10:45:48;22.27;;;10.17;;
18338;SDS011;9295;44.484;11.240;2023-03-23T10:48:22;20.00;;;9.50;;
18338;SDS011;9295;44.484;11.240;2023-03-23T10:50:53;24.70;;;10.03;;
18338;SDS011;9295;44.484;11.240;2023-03-23T10:53:26;21.73;;;9.87;;
18338;SDS011;9295;44.484;11.240;2023-03-23T10:56:01;15.20;;;9.03;;
18338;SDS011;9295;44.484;11.240;2023-03-23T10:58:31;24.03;;;10.03;;
18338;SDS011;9295;44.484;11.240;2023-03-23T11:01:00;20.90;;;9.67;;
18338;SDS011;9295;44.484;11.240;2023-03-23T11:03:35;17.60;;;8.87;;
18338;SDS011;9295;44.484;11.240;2023-03-23T11:06:08;20.83;;;9.67;;
18338;SDS011;9295;44.484;11.240;2023-03-23T11:08:46;18.50;;;9.43;;
18338;SDS011;9295;44.484;11.240;2023-03-23T11:11:16;22.13;;;9.03;;
18338;SDS011;9295;44.484;11.240;2023-03-23T11:13:49;21.70;;;9.33;;
18338;SDS011;9295;44.484;11.240;2023-03-23T11:16:23;20.07;;;9.07;;
18338;SDS011;9295;44.484;11.240;2023-03-23T11:18:53;21.37;;;9.50;;
18338;SDS011;9295;44.484;11.240;2023-03-23T11:21:21;20.20;;;8.40;;
18338;SDS011;9295;44.484;11.240;2023-03-23T11:23:51;21.33;;;9.17;;
18338;SDS011;9295;44.484;11.240;2023-03-23T11:26:21;16.97;;;9.07;;
18338;SDS011;9295;44.484;11.240;2023-03-23T11:28:55;22.80;;;10.13;;
18338;SDS011;9295;44.484;11.240;2023-03-23T11:31:26;19.17;;;9.73;;
18338;SDS011;9295;44.484;11.240;2023-03-23T11:33:57;20.00;;;8.90;;
18338;SDS011;9295;44.484;11.240;2023-03-23T11:36:30;23.50;;;10.07;;
18338;SDS011;9295;44.484;11.240;2023-03-23T11:39:00;25.63;;;10.53;;
18338;SDS011;9295;44.484;11.240;2023-03-23T11:41:32;26.70;;;10.30;;
18338;SDS011;9295;44.484;11.240;2023-03-23T11:44:09;23.17;;;11.43;;
18338;SDS011;9295;44.484;11.240;2023-03-23T11:46:41;21.27;;;10.30;;
18338;SDS011;9295;44.484;11.240;2023-03-23T11:49:18;22.40;;;11.00;;
18338;SDS011;9295;44.484;11.240;2023-03-23T11:51:52;21.40;;;10.60;;
18338;SDS011;9295;44.484;11.240;2023-03-23T11:54:24;22.70;;;11.10;;
18338;SDS011;9295;44.484;11.240;2023-03-23T11:56:56;17.80;;;9.17;;
18338;SDS011;9295;44.484;11.240;2023-03-23T11:59:29;29.40;;;12.00;;
18338;SDS011;9295;44.484;11.240;2023-03-23T12:02:01;22.90;;;10.00;;
18338;SDS011;9295;44.484;11.240;2023-03-23T12:05:15;19.47;;;10.57;;
18338;SDS011;9295;44.484;11.240;2023-03-23T12:07:56;19.33;;;9.97;;
18338;SDS011;9295;44.484;11.240;2023-03-23T12:10:34;21.60;;;10.00;;
18338;SDS011;9295;44.484;11.240;2023-03-23T12:13:14;18.10;;;9.20;;
18338;SDS011;9295;44.484;11.240;2023-03-23T12:15:58;24.90;;;11.03;;
18338;SDS011;9295;44.484;11.240;2023-03-23T12:18:37;22.00;;;10.63;;
18338;SDS011;9295;44.484;11.240;2023-03-23T12:21:15;25.80;;;12.30;;
18338;SDS011;9295;44.484;11.240;2023-03-23T12:23:50;28.47;;;11.17;;
18338;SDS011;9295;44.484;11.240;2023-03-23T12:26:30;30.77;;;10.70;;
18338;SDS011;9295;44.484;11.240;2023-03-23T12:29:11;21.10;;;11.23;;
18338;SDS011;9295;44.484;11.240;2023-03-23T12:31:54;19.97;;;10.17;;
18338;SDS011;9295;44.484;11.240;2023-03-23T12:34:32;24.60;;;10.87;;
18338;SDS011;9295;44.484;11.240;2023-03-23T12:37:10;20.53;;;11.40;;
18338;SDS011;9295;44.484;11.240;2023-03-23T12:42:44;20.10;;;10.20;;
18338;SDS011;9295;44.484;11.240;2023-03-23T12:45:21;19.50;;;10.60;;
18338;SDS011;9295;44.484;11.240;2023-03-23T12:48:13;25.10;;;11.90;;
18338;SDS011;9295;44.484;11.240;2023-03-23T12:50:46;24.47;;;11.77;;
18338;SDS011;9295;44.484;11.240;2023-03-23T12:53:27;27.80;;;11.37;;
18338;SDS011;9295;44.484;11.240;2023-03-23T12:56:04;22.60;;;10.37;;
18338;SDS011;9295;44.484;11.240;2023-03-23T12:58:38;29.60;;;12.63;;
18338;SDS011;9295;44.484;11.240;2023-03-23T13:01:11;26.60;;;12.47;;
18338;SDS011;9295;44.484;11.240;2023-03-23T13:03:49;24.63;;;10.90;;
18338;SDS011;9295;44.484;11.240;2023-03-23T13:06:22;26.53;;;12.43;;
18338;SDS011;9295;44.484;11.240;2023-03-23T13:08:59;23.57;;;12.07;;
18338;SDS011;9295;44.484;11.240;2023-03-23T13:11:32;24.57;;;11.33;;
18338;SDS011;9295;44.484;11.240;2023-03-23T13:14:03;25.30;;;12.97;;
18338;SDS011;9295;44.484;11.240;2023-03-23T13:16:43;23.20;;;11.67;;
18338;SDS011;9295;44.484;11.240;2023-03-23T13:19:19;25.87;;;11.80;;
18338;SDS011;9295;44.484;11.240;2023-03-23T13:21:54;24.10;;;12.07;;
18338;SDS011;9295;44.484;11.240;2023-03-23T13:24:46;24.97;;;13.57;;
18338;SDS011;9295;44.484;11.240;2023-03-23T13:27:17;30.43;;;15.20;;
18338;SDS011;9295;44.484;11.240;2023-03-23T13:29:44;34.83;;;17.03;;
18338;SDS011;9295;44.484;11.240;2023-03-23T13:32:15;37.97;;;16.70;;
18338;SDS011;9295;44.484;11.240;2023-03-23T13:34:45;33.47;;;17.30;;
18338;SDS011;9295;44.484;11.240;2023-03-23T13:37:19;34.13;;;16.30;;
18338;SDS011;9295;44.484;11.240;2023-03-23T13:39:50;36.60;;;17.53;;
18338;SDS011;9295;44.484;11.240;2023-03-23T13:42:22;31.63;;;16.67;;
18338;SDS011;9295;44.484;11.240;2023-03-23T13:45:05;33.07;;;17.20;;
18338;SDS011;9295;44.484;11.240;2023-03-23T13:47:36;36.70;;;18.57;;
18338;SDS011;9295;44.484;11.240;2023-03-23T13:52:57;38.20;;;19.67;;
18338;SDS011;9295;44.484;11.240;2023-03-23T13:55:39;35.20;;;17.80;;
18338;SDS011;9295;44.484;11.240;2023-03-23T13:58:12;40.33;;;18.47;;
18338;SDS011;9295;44.484;11.240;2023-03-23T14:00:50;38.67;;;18.17;;
18338;SDS011;9295;44.484;11.240;2023-03-23T14:03:33;32.03;;;18.13;;
18338;SDS011;9295;44.484;11.240;2023-03-23T14:06:05;35.93;;;18.10;;
18338;SDS011;9295;44.484;11.240;2023-03-23T14:09:03;37.13;;;19.03;;
18338;SDS011;9295;44.484;11.240;2023-03-23T14:11:32;36.17;;;18.10;;
18338;SDS011;9295;44.484;11.240;2023-03-23T14:14:07;45.67;;;21.07;;
18338;SDS011;9295;44.484;11.240;2023-03-23T14:16:42;35.90;;;17.00;;
18338;SDS011;9295;44.484;11.240;2023-03-23T14:19:16;38.37;;;18.47;;
18338;SDS011;9295;44.484;11.240;2023-03-23T14:21:50;46.60;;;19.13;;
18338;SDS011;9295;44.484;11.240;2023-03-23T14:24:21;37.60;;;19.10;;
18338;SDS011;9295;44.484;11.240;2023-03-23T14:26:50;38.40;;;19.03;;
18338;SDS011;9295;44.484;11.240;2023-03-23T14:29:19;39.17;;;19.60;;
18338;SDS011;9295;44.484;11.240;2023-03-23T14:31:53;36.60;;;19.70;;
18338;SDS011;9295;44.484;11.240;2023-03-23T14:34:23;45.80;;;20.57;;
18338;SDS011;9295;44.484;11.240;2023-03-23T14:36:54;33.93;;;18.97;;
18338;SDS011;9295;44.484;11.240;2023-03-23T14:39:23;38.90;;;19.90;;
18338;SDS011;9295;44.484;11.240;2023-03-23T14:41:52;39.97;;;19.60;;
18338;SDS011;9295;44.484;11.240;2023-03-23T14:44:22;50.23;;;19.80;;
18338;SDS011;9295;44.484;11.240;2023-03-23T14:46:52;45.57;;;21.50;;
18338;SDS011;9295;44.484;11.240;2023-03-23T14:49:24;44.57;;;18.77;;
18338;SDS011;9295;44.484;11.240;2023-03-23T14:52:02;41.33;;;18.87;;
18338;SDS011;9295;44.484;11.240;2023-03-23T14:54:34;38.60;;;18.37;;
18338;SDS011;9295;44.484;11.240;2023-03-23T14:57:09;42.17;;;18.13;;
18338;SDS011;9295;44.484;11.240;2023-03-23T14:59:39;47.67;;;18.60;;
18338;SDS011;9295;44.484;11.240;2023-03-23T15:02:10;37.53;;;18.00;;
18338;SDS011;9295;44.484;11.240;2023-03-23T15:04:39;41.70;;;18.57;;
18338;SDS011;9295;44.484;11.240;2023-03-23T15:07:10;42.10;;;20.63;;
18338;SDS011;9295;44.484;11.240;2023-03-23T15:09:41;42.47;;;20.03;;
18338;SDS011;9295;44.484;11.240;2023-03-23T15:12:13;37.77;;;17.87;;
18338;SDS011;9295;44.484;11.240;2023-03-23T15:14:48;49.30;;;20.70;;
18338;SDS011;9295;44.484;11.240;2023-03-23T15:17:18;42.13;;;20.03;;
18338;SDS011;9295;44.484;11.240;2023-03-23T15:19:48;47.13;;;20.70;;
18338;SDS011;9295;44.484;11.240;2023-03-23T15:22:20;42.43;;;18.67;;
18338;SDS011;9295;44.484;11.240;2023-03-23T15:24:50;39.97;;;17.80;;
18338;SDS011;9295;44.484;11.240;2023-03-23T15:27:23;45.50;;;18.80;;